createdAt,value
2023-03-12T00:00:11.428Z,3.98
2023-03-12T00:02:38.629Z,3.96
2023-03-12T00:05:06.558Z,3.95
2023-03-12T00:07:36.309Z,3.91
2023-03-12T00:10:06.214Z,3.96
2023-03-12T00:12:33.606Z,3.94
2023-03-12T00:15:01.243Z,3.93
2023-03-12T00:17:30.230Z,3.95
2023-03-12T00:19:57.982Z,3.97
2023-03-12T00:22:25.751Z,3.96
2023-03-12T00:24:57.852Z,3.95
2023-03-12T00:27:26.461Z,3.93
2023-03-12T00:29:54.306Z,3.98
2023-03-12T00:32:22.030Z,4.00
2023-03-12T00:34:54.675Z,4.00
2023-03-12T00:37:22.729Z,3.98
2023-03-12T00:39:49.805Z,3.99
2023-03-12T00:42:17.908Z,3.98
2023-03-12T00:44:45.479Z,3.97
2023-03-12T00:47:13.367Z,3.95
2023-03-12T00:49:40.720Z,3.87
2023-03-12T00:52:07.883Z,3.86
2023-03-12T00:54:34.988Z,3.85
2023-03-12T00:57:02.246Z,3.84
2023-03-12T00:59:29.473Z,2.81
2023-03-12T01:01:56.513Z,3.81
2023-03-12T01:04:24.399Z,3.79
2023-03-12T01:06:51.514Z,3.69
2023-03-12T01:09:19.181Z,3.72
2023-03-12T01:11:46.280Z,3.69
2023-03-12T01:14:13.348Z,3.66
2023-03-12T01:16:40.523Z,3.63
2023-03-12T01:19:07.603Z,3.56
2023-03-12T01:21:34.720Z,3.57
2023-03-12T01:24:01.819Z,3.53
2023-03-12T01:26:28.908Z,3.54
2023-03-12T01:28:56.066Z,3.51
2023-03-12T01:31:23.179Z,3.51
2023-03-12T01:33:52.759Z,3.49
2023-03-12T01:36:28.147Z,3.47
2023-03-12T01:38:59.269Z,3.42
2023-03-12T01:41:32.401Z,3.43
2023-03-12T01:44:03.573Z,3.41
2023-03-12T01:46:43.112Z,3.39
2023-03-12T01:49:25.428Z,3.38
2023-03-12T01:52:16.608Z,3.36
2023-03-12T01:55:02.970Z,3.33
2023-03-12T01:57:37.953Z,3.37
2023-03-12T02:00:19.220Z,3.38
2023-03-12T02:02:49.521Z,3.38
2023-03-12T02:06:00.309Z,3.39
2023-03-12T02:08:27.597Z,3.39
2023-03-12T02:10:54.755Z,3.39
2023-03-12T02:13:21.951Z,3.40
2023-03-12T02:15:48.979Z,3.42
2023-03-12T02:18:19.320Z,3.44
2023-03-12T02:21:16.071Z,3.46
2023-03-12T02:24:02.413Z,3.42
2023-03-12T02:26:31.175Z,3.43
2023-03-12T02:29:01.080Z,3.42
2023-03-12T02:31:37.387Z,3.43
2023-03-12T02:34:05.930Z,3.37
2023-03-12T02:36:33.250Z,3.43
2023-03-12T02:39:00.328Z,3.39
2023-03-12T02:41:32.539Z,3.39
2023-03-12T02:44:08.307Z,3.36
2023-03-12T02:46:41.679Z,3.33
2023-03-12T02:49:09.489Z,3.31
2023-03-12T02:51:36.526Z,3.29
2023-03-12T02:54:03.790Z,3.32
2023-03-12T02:56:30.915Z,3.29
2023-03-12T02:58:58.561Z,3.28
2023-03-12T03:01:26.110Z,3.27
2023-03-12T03:03:54.545Z,3.25
2023-03-12T03:06:22.134Z,3.09
2023-03-12T03:08:49.166Z,3.25
2023-03-12T03:11:16.255Z,3.19
2023-03-12T03:13:43.274Z,3.20
2023-03-12T03:16:12.322Z,3.21
2023-03-12T03:18:39.493Z,3.20
2023-03-12T03:21:09.133Z,3.20
2023-03-12T03:23:37.147Z,3.17
2023-03-12T03:26:04.471Z,3.15
2023-03-12T03:28:31.538Z,3.11
2023-03-12T03:31:01.776Z,3.04
2023-03-12T03:33:31.966Z,3.12
2023-03-12T03:36:01.585Z,3.08
2023-03-12T03:38:33.320Z,3.05
2023-03-12T03:41:00.913Z,3.09
2023-03-12T03:43:28.174Z,3.08
2023-03-12T03:46:04.094Z,3.07
2023-03-12T03:48:32.261Z,3.07
2023-03-12T03:51:07.659Z,3.04
2023-03-12T03:53:35.084Z,3.05
2023-03-12T03:56:10.870Z,3.02
2023-03-12T03:58:38.305Z,2.99
2023-03-12T04:01:06.204Z,2.91
2023-03-12T04:03:34.737Z,2.99
2023-03-12T04:06:06.376Z,3.00
2023-03-12T04:08:35.562Z,2.98
2023-03-12T04:11:13.387Z,2.98
2023-03-12T04:13:40.882Z,2.95
2023-03-12T04:16:09.471Z,2.96
2023-03-12T04:18:37.308Z,2.97
2023-03-12T04:21:10.189Z,2.95
2023-03-12T04:23:38.263Z,2.94
2023-03-12T04:26:06.897Z,2.90
2023-03-12T04:28:35.630Z,2.93
2023-03-12T04:31:07.236Z,2.92
2023-03-12T04:33:38.426Z,2.87
2023-03-12T04:36:06.715Z,2.89
2023-03-12T04:38:34.393Z,2.87
2023-03-12T04:41:12.533Z,2.87
2023-03-12T04:43:39.975Z,2.85
2023-03-12T04:46:08.467Z,2.84
2023-03-12T04:48:36.463Z,2.83
2023-03-12T04:51:05.301Z,2.83
2023-03-12T04:53:32.532Z,2.82
2023-03-12T04:55:59.806Z,2.79
2023-03-12T04:58:27.120Z,2.78
2023-03-12T05:00:54.229Z,2.77
2023-03-12T05:03:21.366Z,2.74
2023-03-12T05:05:48.423Z,2.73
2023-03-12T05:08:15.554Z,2.72
2023-03-12T05:10:45.412Z,2.70
2023-03-12T05:13:18.031Z,2.68
2023-03-12T05:15:47.470Z,2.63
2023-03-12T05:18:14.775Z,2.65
2023-03-12T05:20:42.255Z,2.63
2023-03-12T05:23:09.378Z,2.62
2023-03-12T05:25:40.999Z,2.57
2023-03-12T05:28:08.396Z,2.56
2023-03-12T05:30:35.527Z,2.55
2023-03-12T05:33:02.660Z,2.54
2023-03-12T05:35:31.594Z,2.55
2023-03-12T05:37:58.925Z,2.54
2023-03-12T05:40:26.022Z,2.54
2023-03-12T05:42:53.473Z,2.54
2023-03-12T05:45:20.580Z,2.54
2023-03-12T05:47:47.648Z,2.55
2023-03-12T05:50:16.407Z,2.55
2023-03-12T05:52:43.562Z,2.56
2023-03-12T05:55:10.811Z,2.57
2023-03-12T05:57:37.966Z,2.56
2023-03-12T06:00:06.486Z,2.57
2023-03-12T06:02:33.652Z,2.55
2023-03-12T06:05:00.778Z,2.59
2023-03-12T06:07:27.919Z,2.59
2023-03-12T06:09:54.988Z,2.61
2023-03-12T06:12:22.190Z,2.62
2023-03-12T06:14:49.233Z,2.64
2023-03-12T06:17:16.293Z,2.65
2023-03-12T06:19:43.937Z,2.66
2023-03-12T06:22:10.985Z,2.57
2023-03-12T06:24:38.140Z,2.68
2023-03-12T06:27:05.275Z,2.66
2023-03-12T06:29:32.332Z,2.69
2023-03-12T06:31:59.530Z,2.70
2023-03-12T06:34:27.202Z,2.72
2023-03-12T06:36:54.295Z,2.71
2023-03-12T06:39:21.526Z,2.72
2023-03-12T06:41:48.767Z,2.75
2023-03-12T06:44:16.222Z,2.77
2023-03-12T06:46:44.350Z,2.79
2023-03-12T06:49:12.150Z,2.81
2023-03-12T06:51:39.281Z,2.83
2023-03-12T06:54:06.915Z,2.85
2023-03-12T06:56:34.099Z,2.88
2023-03-12T06:59:01.188Z,2.90
2023-03-12T07:01:28.387Z,2.94
2023-03-12T07:03:55.399Z,2.99
2023-03-12T07:06:24.562Z,3.00
2023-03-12T07:08:52.839Z,3.04
2023-03-12T07:11:19.991Z,3.09
2023-03-12T07:13:47.483Z,3.10
2023-03-12T07:16:14.963Z,3.12
2023-03-12T07:18:42.308Z,3.14
2023-03-12T07:21:09.621Z,3.17
2023-03-12T07:23:36.745Z,3.18
2023-03-12T07:26:05.964Z,3.22
2023-03-12T07:28:33.888Z,3.26
2023-03-12T07:31:04.237Z,3.29
2023-03-12T07:33:31.964Z,3.34
2023-03-12T07:35:59.512Z,3.34
2023-03-12T07:38:27.339Z,3.45
2023-03-12T07:40:57.577Z,3.48
2023-03-12T07:43:25.568Z,3.56
2023-03-12T07:45:52.778Z,3.59
2023-03-12T07:48:20.201Z,3.64
2023-03-12T07:50:47.756Z,3.72
2023-03-12T07:53:14.871Z,3.76
2023-03-12T07:55:46.537Z,3.82
2023-03-12T07:58:15.999Z,3.85
2023-03-12T08:00:44.416Z,3.91
2023-03-12T08:03:12.641Z,4.03
2023-03-12T08:05:39.929Z,4.08
2023-03-12T08:08:07.509Z,4.14
2023-03-12T08:10:36.047Z,4.17
2023-03-12T08:13:03.230Z,4.23
2023-03-12T08:15:30.435Z,4.28
2023-03-12T08:17:57.568Z,4.33
2023-03-12T08:20:24.684Z,4.37
2023-03-12T08:22:51.927Z,4.44
2023-03-12T08:25:21.091Z,4.52
2023-03-12T08:27:48.199Z,4.60
2023-03-12T08:30:15.719Z,4.67
2023-03-12T08:32:42.813Z,4.75
2023-03-12T08:35:10.202Z,4.78
2023-03-12T08:37:37.358Z,4.82
2023-03-12T08:40:14.257Z,4.89
2023-03-12T08:42:43.583Z,4.98
2023-03-12T08:45:12.712Z,5.05
2023-03-12T08:47:41.599Z,5.11
2023-03-12T08:50:12.409Z,5.16
2023-03-12T08:52:39.733Z,5.19
2023-03-12T08:55:07.414Z,5.22
2023-03-12T08:57:34.561Z,5.27
2023-03-12T09:00:02.056Z,5.30
2023-03-12T09:02:29.285Z,5.37
2023-03-12T09:04:56.306Z,5.43
2023-03-12T09:07:23.469Z,5.51
2023-03-12T09:09:50.555Z,5.60
2023-03-12T09:12:17.767Z,5.67
2023-03-12T09:15:03.464Z,5.72
2023-03-12T09:17:31.229Z,5.75
2023-03-12T09:19:58.522Z,5.76
2023-03-12T09:22:26.206Z,5.79
2023-03-12T09:24:53.225Z,5.82
2023-03-12T09:27:20.254Z,5.87
2023-03-12T09:29:59.560Z,5.93
2023-03-12T09:32:28.782Z,6.00
2023-03-12T09:34:56.091Z,6.01
2023-03-12T09:37:24.293Z,5.93
2023-03-12T09:39:52.775Z,5.98
2023-03-12T09:42:55.221Z,6.01
2023-03-12T09:45:31.449Z,6.05
2023-03-12T09:48:03.498Z,6.11
2023-03-12T09:50:43.581Z,6.07
2023-03-12T09:53:25.165Z,6.14
2023-03-12T09:55:56.897Z,6.12
2023-03-12T09:58:36.725Z,6.19
2023-03-12T10:01:19.536Z,6.21
2023-03-12T10:04:05.904Z,6.24
2023-03-12T10:07:11.350Z,6.24
2023-03-12T10:10:08.489Z,6.27
2023-03-12T10:12:47.664Z,6.29
2023-03-12T10:15:23.534Z,6.32
2023-03-12T10:17:50.622Z,6.35
2023-03-12T10:20:53.599Z,6.38
2023-03-12T10:23:51.205Z,6.44
2023-03-12T10:26:32.191Z,6.48
2023-03-12T10:29:24.252Z,6.50
2023-03-12T10:32:07.665Z,6.53
2023-03-12T10:34:46.917Z,6.55
2023-03-12T10:37:29.888Z,6.57
2023-03-12T10:39:57.171Z,6.58
2023-03-12T10:42:28.930Z,6.60
2023-03-12T10:45:16.074Z,6.59
2023-03-12T10:47:48.764Z,6.65
2023-03-12T10:50:27.385Z,6.66
2023-03-12T10:53:29.947Z,6.66
2023-03-12T10:56:12.906Z,6.64
2023-03-12T10:58:46.007Z,6.63
2023-03-12T11:01:26.533Z,6.66
2023-03-12T11:04:09.655Z,6.69
2023-03-12T11:06:36.738Z,6.69
2023-03-12T11:09:18.874Z,6.59
2023-03-12T11:11:49.740Z,6.66
2023-03-12T11:14:23.114Z,6.69
2023-03-12T11:16:52.572Z,6.74
2023-03-12T11:19:33.742Z,6.73
2023-03-12T11:22:11.730Z,6.77
2023-03-12T11:25:04.313Z,6.82
2023-03-12T11:27:54.372Z,6.81
2023-03-12T11:30:32.374Z,6.78
2023-03-12T11:33:02.100Z,6.80
2023-03-12T11:36:09.149Z,6.80
2023-03-12T11:38:55.450Z,6.82
2023-03-12T11:41:47.862Z,6.85
2023-03-12T11:44:21.102Z,6.84
2023-03-12T11:46:57.106Z,6.84
2023-03-12T11:49:37.654Z,6.88
2023-03-12T11:52:40.597Z,6.90
2023-03-12T11:55:43.973Z,6.85
2023-03-12T11:58:53.925Z,6.82
2023-03-12T12:01:31.898Z,6.79
2023-03-12T12:04:13.827Z,6.81
2023-03-12T12:07:51.787Z,6.85
2023-03-12T12:10:46.558Z,6.91
2023-03-12T12:13:41.030Z,6.94
2023-03-12T12:16:32.123Z,7.00
2023-03-12T12:19:27.449Z,7.03
2023-03-12T12:22:08.116Z,7.04
2023-03-12T12:24:56.995Z,7.03
2023-03-12T12:27:30.070Z,6.97
2023-03-12T12:30:05.906Z,6.93
2023-03-12T12:33:14.638Z,6.82
2023-03-12T12:35:46.148Z,6.77
2023-03-12T12:38:41.977Z,6.76
2023-03-12T12:41:18.558Z,6.72
2023-03-12T12:44:02.415Z,6.67
2023-03-12T12:46:46.787Z,6.58
2023-03-12T12:49:35.979Z,6.54
2023-03-12T12:52:11.655Z,6.50
2023-03-12T12:55:19.568Z,6.47
2023-03-12T12:58:36.831Z,6.45
2023-03-12T13:01:04.676Z,6.43
2023-03-12T13:03:33.197Z,6.41
2023-03-12T13:06:03.880Z,6.42
2023-03-12T13:08:42.914Z,6.44
2023-03-12T13:11:19.993Z,6.46
2023-03-12T13:14:10.814Z,6.45
2023-03-12T13:16:49.070Z,6.43
2023-03-12T13:19:16.247Z,6.43
2023-03-12T13:22:10.319Z,6.42
2023-03-12T13:25:01.525Z,6.41
2023-03-12T13:27:38.915Z,6.42
2023-03-12T13:30:51.401Z,6.45
2023-03-12T13:33:35.795Z,6.46
2023-03-12T13:36:23.214Z,6.49
2023-03-12T13:38:59.647Z,6.52
2023-03-12T13:41:35.966Z,6.54
2023-03-12T13:44:29.020Z,6.55
2023-03-12T13:47:10.998Z,6.58
2023-03-12T13:50:00.153Z,6.61
2023-03-12T13:52:37.449Z,6.63
2023-03-12T13:55:13.358Z,6.63
2023-03-12T13:58:02.053Z,6.59
2023-03-12T14:00:48.102Z,6.53
2023-03-12T14:03:39.898Z,6.47
2023-03-12T14:06:17.646Z,6.37
2023-03-12T14:08:56.381Z,6.31
2023-03-12T14:11:29.625Z,6.28
2023-03-12T14:13:59.758Z,6.30
2023-03-12T14:16:50.466Z,6.35
2023-03-12T14:19:34.483Z,6.38
2023-03-12T14:22:08.488Z,6.41
2023-03-12T14:24:41.739Z,6.41
2023-03-12T14:27:19.130Z,6.40
2023-03-12T14:30:15.693Z,6.36
2023-03-12T14:32:46.093Z,6.27
2023-03-12T14:35:50.085Z,6.17
2023-03-12T14:38:41.039Z,6.07
2023-03-12T14:41:15.802Z,5.97
2023-03-12T14:43:46.291Z,5.93
2023-03-12T14:46:20.456Z,5.90
2023-03-12T14:48:50.468Z,5.83
2023-03-12T14:51:30.765Z,5.76
2023-03-12T14:54:03.471Z,5.69
2023-03-12T14:56:35.237Z,5.63
2023-03-12T14:59:26.413Z,5.56
2023-03-12T15:02:20.190Z,5.52
2023-03-12T15:04:55.285Z,5.46
2023-03-12T15:07:31.582Z,5.41
2023-03-12T15:09:59.038Z,5.38
2023-03-12T15:12:33.264Z,5.34
2023-03-12T15:15:44.147Z,5.35
2023-03-12T15:18:25.516Z,5.35
2023-03-12T15:20:54.163Z,5.33
2023-03-12T15:23:25.317Z,5.29
2023-03-12T15:26:22.015Z,5.27
2023-03-12T15:29:02.334Z,5.23
2023-03-12T15:32:03.454Z,5.25
2023-03-12T15:34:35.795Z,5.24
2023-03-12T15:37:41.065Z,5.22
2023-03-12T15:40:24.352Z,5.13
2023-03-12T15:42:52.827Z,5.17
2023-03-12T15:45:23.256Z,5.15
2023-03-12T15:47:53.910Z,5.15
2023-03-12T15:50:30.665Z,5.18
2023-03-12T15:53:27.555Z,5.17
2023-03-12T15:56:27.287Z,5.12
2023-03-12T15:59:28.443Z,5.11
2023-03-12T16:01:56.993Z,5.11
2023-03-12T16:04:24.646Z,5.09
2023-03-12T16:06:53.343Z,5.07
2023-03-12T16:09:26.639Z,5.10
2023-03-12T16:11:55.796Z,5.05
2023-03-12T16:14:30.052Z,5.07
2023-03-12T16:16:57.247Z,5.07
2023-03-12T16:19:28.973Z,5.07
2023-03-12T16:21:56.261Z,5.06
2023-03-12T16:24:23.483Z,5.04
2023-03-12T16:26:59.534Z,5.02
2023-03-12T16:29:33.886Z,5.00
2023-03-12T16:32:02.054Z,4.96
2023-03-12T16:34:29.410Z,4.96
2023-03-12T16:36:56.766Z,4.96
2023-03-12T16:39:23.873Z,4.96
2023-03-12T16:41:51.054Z,4.93
2023-03-12T16:44:21.751Z,4.96
2023-03-12T16:46:49.170Z,4.95
2023-03-12T16:49:18.106Z,4.89
2023-03-12T16:51:45.387Z,4.96
2023-03-12T16:54:12.702Z,4.95
2023-03-12T16:56:47.882Z,4.95
2023-03-12T16:59:37.969Z,4.96
2023-03-12T17:02:17.060Z,4.86
2023-03-12T17:04:44.515Z,4.90
2023-03-12T17:07:11.602Z,4.86
2023-03-12T17:09:39.044Z,4.80
2023-03-12T17:12:19.611Z,4.75
2023-03-12T17:14:47.964Z,4.75
2023-03-12T17:17:15.067Z,4.72
2023-03-12T17:19:42.208Z,4.67
2023-03-12T17:22:09.748Z,4.62
2023-03-12T17:24:36.859Z,4.60
2023-03-12T17:27:04.048Z,4.59
2023-03-12T17:29:31.216Z,4.56
2023-03-12T17:31:58.453Z,4.52
2023-03-12T17:34:25.551Z,4.49
2023-03-12T17:36:52.618Z,4.45
2023-03-12T17:39:19.893Z,4.40
2023-03-12T17:41:47.039Z,4.37
2023-03-12T17:44:15.914Z,4.34
2023-03-12T17:46:56.540Z,4.32
2023-03-12T17:49:26.542Z,4.30
2023-03-12T17:51:53.687Z,4.25
2023-03-12T17:54:22.031Z,4.25
2023-03-12T17:56:49.224Z,4.22
2023-03-12T17:59:16.375Z,4.19
2023-03-12T18:01:43.604Z,4.12
2023-03-12T18:04:10.785Z,4.15
2023-03-12T18:06:37.932Z,4.13
2023-03-12T18:09:05.000Z,4.09
2023-03-12T18:11:32.112Z,4.04
2023-03-12T18:13:59.163Z,4.01
2023-03-12T18:16:26.518Z,3.95
2023-03-12T18:18:53.557Z,3.96
2023-03-12T18:21:20.711Z,3.93
2023-03-12T18:23:47.907Z,3.91
2023-03-12T18:26:15.036Z,3.86
2023-03-12T18:28:42.540Z,3.86
2023-03-12T18:31:10.141Z,3.84
2023-03-12T18:33:38.040Z,3.87
2023-03-12T18:36:05.731Z,3.87
2023-03-12T18:38:32.962Z,3.86
2023-03-12T18:41:08.978Z,3.84
2023-03-12T18:43:36.848Z,3.80
2023-03-12T18:46:04.548Z,3.80
2023-03-12T18:48:31.907Z,3.70
2023-03-12T18:50:59.020Z,3.79
2023-03-12T18:53:26.695Z,3.79
2023-03-12T18:55:56.985Z,3.85
2023-03-12T18:58:26.721Z,3.84
2023-03-12T19:00:55.655Z,3.85
2023-03-12T19:03:24.185Z,3.85
2023-03-12T19:06:10.340Z,3.85
2023-03-12T19:08:38.074Z,3.86
2023-03-12T19:11:08.474Z,3.86
2023-03-12T19:13:36.061Z,3.87
2023-03-12T19:16:08.717Z,3.87
2023-03-12T19:18:38.650Z,3.85
2023-03-12T19:21:08.122Z,3.84
2023-03-12T19:23:37.252Z,3.75
2023-03-12T19:26:08.389Z,3.85
2023-03-12T19:28:36.447Z,3.84
2023-03-12T19:31:10.743Z,3.86
2023-03-12T19:33:38.088Z,3.85
2023-03-12T19:36:05.686Z,3.85
2023-03-12T19:38:32.887Z,3.80
2023-03-12T19:41:00.186Z,3.88
2023-03-12T19:43:27.671Z,3.87
2023-03-12T19:45:55.576Z,3.86
2023-03-12T19:48:25.157Z,3.83
2023-03-12T19:50:53.825Z,3.80
2023-03-12T19:53:20.967Z,3.83
2023-03-12T19:55:49.486Z,3.85
2023-03-12T19:58:17.373Z,3.90
2023-03-12T20:00:45.052Z,3.93
2023-03-12T20:03:12.272Z,3.92
2023-03-12T20:05:44.115Z,3.94
2023-03-12T20:08:12.162Z,3.96
2023-03-12T20:10:39.915Z,3.97
2023-03-12T20:13:08.868Z,4.00
2023-03-12T20:15:37.425Z,4.02
2023-03-12T20:18:04.547Z,4.04
2023-03-12T20:20:31.657Z,4.07
2023-03-12T20:22:58.723Z,4.09
2023-03-12T20:25:25.864Z,4.13
2023-03-12T20:27:53.120Z,4.07
2023-03-12T20:30:20.286Z,4.14
2023-03-12T20:32:47.501Z,4.17
2023-03-12T20:35:14.665Z,4.18
2023-03-12T20:37:41.923Z,4.20
2023-03-12T20:40:09.998Z,4.22
2023-03-12T20:42:37.241Z,4.23
2023-03-12T20:45:04.858Z,4.23
2023-03-12T20:47:34.482Z,4.23
2023-03-12T20:50:01.788Z,4.22
2023-03-12T20:52:29.075Z,4.23
2023-03-12T20:54:56.093Z,4.24
2023-03-12T20:57:23.228Z,4.28
2023-03-12T20:59:50.312Z,4.28
2023-03-12T21:02:17.756Z,4.30
2023-03-12T21:04:49.428Z,4.30
2023-03-12T21:07:16.546Z,4.30
2023-03-12T21:09:43.608Z,4.31
2023-03-12T21:12:10.749Z,4.38
2023-03-12T21:14:39.795Z,4.39
2023-03-12T21:17:13.080Z,4.40
2023-03-12T21:19:41.754Z,4.43
2023-03-12T21:22:09.626Z,4.45
2023-03-12T21:24:36.737Z,4.49
2023-03-12T21:27:04.040Z,4.47
2023-03-12T21:29:31.128Z,4.51
2023-03-12T21:31:58.285Z,4.53
2023-03-12T21:34:28.919Z,4.53
2023-03-12T21:36:56.789Z,4.58
2023-03-12T21:39:23.922Z,4.56
2023-03-12T21:41:50.932Z,4.63
2023-03-12T21:44:18.034Z,4.66
2023-03-12T21:46:45.143Z,4.62
2023-03-12T21:49:13.973Z,4.69
2023-03-12T21:51:41.105Z,4.68
2023-03-12T21:54:08.311Z,4.76
2023-03-12T21:56:35.360Z,4.78
2023-03-12T21:59:02.923Z,4.78
2023-03-12T22:01:30.262Z,4.83
2023-03-12T22:04:01.056Z,4.83
2023-03-12T22:06:28.115Z,4.88
2023-03-12T22:08:56.028Z,4.91
2023-03-12T22:11:23.510Z,4.94
2023-03-12T22:13:50.531Z,4.94
2023-03-12T22:16:17.774Z,4.99
2023-03-12T22:18:46.732Z,4.95
2023-03-12T22:21:20.636Z,4.97
2023-03-12T22:23:53.417Z,5.06
2023-03-12T22:26:24.247Z,5.09
2023-03-12T22:28:53.791Z,5.13
2023-03-12T22:31:22.821Z,5.14
2023-03-12T22:33:50.233Z,5.19
2023-03-12T22:36:18.733Z,5.11
2023-03-12T22:38:47.698Z,5.25
2023-03-12T22:41:24.843Z,5.28
2023-03-12T22:43:55.781Z,5.30
2023-03-12T22:46:25.205Z,5.32
2023-03-12T22:48:55.836Z,5.34
2023-03-12T22:51:24.408Z,5.38
2023-03-12T22:53:52.007Z,5.39
2023-03-12T22:56:19.209Z,5.41
2023-03-12T22:58:46.315Z,5.44
2023-03-12T23:01:20.709Z,5.46
2023-03-12T23:03:49.457Z,5.48
2023-03-12T23:06:24.220Z,5.51
2023-03-12T23:08:52.746Z,5.53
2023-03-12T23:11:20.858Z,5.56
2023-03-12T23:13:49.697Z,5.59
2023-03-12T23:16:23.990Z,5.57
2023-03-12T23:18:51.654Z,5.65
2023-03-12T23:21:21.926Z,5.65
2023-03-12T23:23:49.940Z,5.70
2023-03-12T23:26:26.364Z,5.73
2023-03-12T23:28:58.834Z,5.74
2023-03-12T23:31:28.466Z,5.76
2023-03-12T23:33:56.722Z,5.78
2023-03-12T23:36:25.012Z,5.76
2023-03-12T23:38:52.089Z,5.81
2023-03-12T23:41:25.891Z,5.82
2023-03-12T23:43:53.427Z,5.83
2023-03-12T23:46:20.889Z,5.83
2023-03-12T23:48:49.200Z,5.82
2023-03-12T23:51:29.034Z,5.84
2023-03-12T23:54:00.588Z,5.83
2023-03-12T23:56:36.464Z,5.85
2023-03-12T23:59:06.258Z,5.85
